Terminal Aerodrome Forecast
Issued by NWS Sterling, VA

Current Version | Previous Version | Graphics & Text | Print | Product List | Glossary On
Versions: 1 2 3 4 5 6 7 8 9 10 11 12 13 14 15
000
FTUS41 KLWX 271100
TAFMRB
TAF
KMRB 271139Z 2712/2812 VRB04KT P6SM SCT050 BKN130
     FM271700 23006KT P6SM VCTS BKN050CB BKN130
     FM271900 24008KT 5SM SHRA VCTS BKN050CB BKN130
     FM280100 23005KT P6SM BKN050 BKN130
     FM280500 24007KT P6SM SCT050 SCT130
     FM281100 27010G18KT P6SM FEW050 SCT130=

USA.gov is the U.S. government's official web portal to all federal, state and local government web resources and services.